Time;durP1;ratioP1;P1;durP2;ratioP2;P2;SDS_P1;SDS_P2;PMS_P1;PMS_P2;Temp;Humidity;BMP_temperature;BMP_pressure;BME280_temperature;BME280_humidity;BME280_pressure;Samples;Min_cycle;Max_cycle;Signal;HPM_P1;HPM_P2
2021/10/03 00:00:22;;;;;;;27.00;14.93;;;;;;;7.99;60.72;102364.81;5110228;28;20283;-59
2021/10/03 00:02:51;;;;;;;35.83;17.30;;;;;;;7.95;61.15;102360.44;5109288;28;20201;-60
2021/10/03 00:05:18;;;;;;;35.07;17.60;;;;;;;7.86;63.39;102365.41;5109892;28;20239;-59
2021/10/03 00:07:50;;;;;;;75.47;29.83;;;;;;;7.75;64.02;102373.53;5109633;28;20173;-60
2021/10/03 00:10:19;;;;;;;38.80;17.33;;;;;;;7.50;64.17;102360.53;5109988;28;20235;-60
2021/10/03 00:12:46;;;;;;;57.60;25.07;;;;;;;7.58;64.92;102374.06;5109570;28;20194;-60
2021/10/03 00:15:13;;;;;;;55.23;22.70;;;;;;;7.54;64.89;102372.41;5109787;28;20181;-60
2021/10/03 00:17:39;;;;;;;38.43;17.50;;;;;;;7.55;64.91;102361.00;5115278;27;20221;-60
2021/10/03 00:20:06;;;;;;;31.13;15.17;;;;;;;7.60;65.38;102363.47;5134911;27;20204;-60
2021/10/03 00:22:32;;;;;;;32.70;16.20;;;;;;;7.61;65.34;102355.97;5119709;27;20185;-59
2021/10/03 00:24:57;;;;;;;26.83;14.77;;;;;;;7.68;64.29;102356.09;5113606;28;20684;-60
2021/10/03 00:27:24;;;;;;;23.30;13.13;;;;;;;7.76;64.27;102366.06;5113553;28;20185;-60
2021/10/03 00:29:50;;;;;;;22.20;13.83;;;;;;;7.81;63.98;102361.03;5112295;27;20271;-60
2021/10/03 00:32:15;;;;;;;25.37;12.60;;;;;;;7.76;63.94;102344.78;5113822;28;20257;-60
2021/10/03 00:34:41;;;;;;;24.20;13.13;;;;;;;7.85;64.03;102350.03;5113230;28;20189;-60
2021/10/03 00:37:06;;;;;;;25.17;12.73;;;;;;;7.92;63.69;102353.69;5113011;28;20188;-60
2021/10/03 00:39:32;;;;;;;25.90;13.17;;;;;;;7.94;63.62;102354.09;5113820;28;20202;-60
2021/10/03 00:41:57;;;;;;;27.17;14.03;;;;;;;7.82;63.80;102335.00;5113694;28;20432;-59
2021/10/03 00:44:23;;;;;;;32.57;15.33;;;;;;;7.93;63.46;102360.00;5113937;28;20170;-60
2021/10/03 00:46:49;;;;;;;33.27;14.77;;;;;;;7.92;62.56;102355.63;5112709;28;20182;-59
2021/10/03 00:49:14;;;;;;;31.43;14.80;;;;;;;7.70;62.94;102321.41;5112974;28;20181;-60
2021/10/03 00:51:40;;;;;;;27.97;15.30;;;;;;;7.94;63.14;102361.59;5113738;28;20270;-60
2021/10/03 00:54:05;;;;;;;22.33;13.47;;;;;;;7.87;61.55;102354.00;5113044;28;20210;-60
2021/10/03 00:56:31;;;;;;;23.90;14.23;;;;;;;7.88;62.83;102360.31;5113030;28;20215;-59
2021/10/03 00:58:56;;;;;;;24.83;13.03;;;;;;;7.79;61.75;102352.31;5112759;28;20260;-59
2021/10/03 01:01:22;;;;;;;30.23;14.37;;;;;;;7.80;61.78;102358.63;5094969;28;20192;-60
2021/10/03 01:03:49;;;;;;;28.27;15.00;;;;;;;7.81;62.55;102362.97;5119067;27;20170;-59
2021/10/03 01:06:15;;;;;;;24.47;12.90;;;;;;;7.52;62.64;102322.31;5133448;27;20189;-59
2021/10/03 01:08:41;;;;;;;22.20;13.40;;;;;;;7.71;62.59;102358.91;5133298;27;20173;-59
2021/10/03 01:11:06;;;;;;;25.97;13.07;;;;;;;7.78;62.04;102358.19;5133116;27;20666;-60
2021/10/03 01:13:32;;;;;;;45.70;24.27;;;;;;;7.78;63.02;102349.91;5133497;27;20208;-60
2021/10/03 01:15:58;;;;;;;30.17;15.20;;;;;;;7.73;61.96;102345.50;5133000;27;20607;-59
2021/10/03 01:18:25;;;;;;;39.03;18.63;;;;;;;7.78;62.50;102355.44;5133438;27;20603;-60
2021/10/03 01:20:51;;;;;;;40.30;20.17;;;;;;;7.53;62.42;102332.19;5133159;27;20598;-60
2021/10/03 01:23:17;;;;;;;47.07;21.53;;;;;;;7.71;62.35;102347.88;5133503;27;20169;-60
2021/10/03 01:25:48;;;;;;;51.87;23.30;;;;;;;7.72;62.21;102348.63;5132740;27;20181;-59
2021/10/03 01:28:14;;;;;;;47.20;23.60;;;;;;;7.71;61.83;102352.56;5132541;27;20174;-59
2021/10/03 01:30:44;;;;;;;43.63;20.40;;;;;;;7.69;61.91;102349.41;5097222;28;20673;-59
2021/10/03 01:33:09;;;;;;;52.43;25.20;;;;;;;7.26;61.61;102292.75;5111924;28;20344;-60
2021/10/03 01:35:36;;;;;;;49.40;22.40;;;;;;;7.55;61.32;102344.47;5112495;28;20477;-59
2021/10/03 01:38:02;;;;;;;44.90;20.00;;;;;;;7.60;62.08;102354.38;5093967;28;20185;-60
2021/10/03 01:40:29;;;;;;;40.83;20.00;;;;;;;7.55;61.38;102349.16;5112829;28;20212;-60
2021/10/03 01:42:55;;;;;;;45.30;20.50;;;;;;;7.53;61.36;102348.75;5117911;27;20569;-59
2021/10/03 01:45:22;;;;;;;46.93;22.40;;;;;;;7.46;61.78;102354.94;5132330;27;20193;-60
2021/10/03 01:48:09;;;;;;;49.57;22.43;;;;;;;7.41;62.13;102344.22;5132413;27;20172;-59
2021/10/03 01:50:41;;;;;;;51.17;21.93;;;;;;;7.28;61.50;102333.75;5133132;27;20176;-59
2021/10/03 01:53:08;;;;;;;42.90;21.23;;;;;;;7.24;62.32;102350.25;5132390;27;20204;-59
2021/10/03 01:55:35;;;;;;;50.93;22.40;;;;;;;7.20;62.58;102352.16;5132299;27;20772;-59
2021/10/03 01:58:01;;;;;;;34.87;18.47;;;;;;;7.19;61.36;102355.25;5121518;27;20182;-59
2021/10/03 02:00:26;;;;;;;37.83;17.33;;;;;;;7.20;61.64;102349.38;5112257;28;20184;-59
2021/10/03 02:02:59;;;;;;;29.90;16.47;;;;;;;7.18;62.29;102348.16;5111689;28;20176;-60
2021/10/03 02:05:26;;;;;;;26.30;14.93;;;;;;;7.15;61.93;102346.94;5111665;28;20166;-59
2021/10/03 02:07:51;;;;;;;30.67;15.87;;;;;;;7.14;62.50;102348.13;5111334;28;20227;-60
2021/10/03 02:10:17;;;;;;;25.57;13.80;;;;;;;7.16;63.09;102345.78;5111956;28;20189;-59
2021/10/03 02:12:42;;;;;;;30.43;16.40;;;;;;;7.14;62.84;102336.28;5112009;28;20194;-60
2021/10/03 02:15:08;;;;;;;38.53;19.47;;;;;;;6.94;63.98;102302.47;5111611;28;20203;-59
2021/10/03 02:17:33;;;;;;;35.13;17.40;;;;;;;7.15;63.02;102332.34;5113524;27;20228;-59
2021/10/03 02:20:00;;;;;;;33.93;17.13;;;;;;;7.14;63.61;102334.31;5131964;27;20231;-59
2021/10/03 02:22:26;;;;;;;33.53;17.73;;;;;;;7.13;62.93;102331.94;5118266;27;20188;-60
2021/10/03 02:24:56;;;;;;;38.43;19.43;;;;;;;7.03;63.29;102316.78;5111206;28;20174;-59
2021/10/03 02:27:23;;;;;;;35.87;18.10;;;;;;;7.13;63.25;102340.19;5111170;28;20185;-59
2021/10/03 02:29:49;;;;;;;39.20;19.10;;;;;;;7.09;62.72;102339.34;5091579;28;20205;-59
2021/10/03 02:32:15;;;;;;;49.30;22.43;;;;;;;7.06;61.90;102351.91;5111539;28;20186;-59
2021/10/03 02:34:40;;;;;;;77.13;35.00;;;;;;;7.02;63.13;102339.22;5110986;28;20712;-59
2021/10/03 02:37:06;;;;;;;52.70;24.87;;;;;;;7.00;62.65;102338.78;5110716;28;20574;-59
2021/10/03 02:39:31;;;;;;;47.63;23.37;;;;;;;6.89;62.50;102335.03;5110546;28;20177;-59
2021/10/03 02:41:57;;;;;;;53.90;23.30;;;;;;;6.99;62.42;102349.03;5111333;28;20675;-59
2021/10/03 02:44:23;;;;;;;53.03;25.33;;;;;;;7.02;62.95;102344.72;5111393;28;20172;-59
2021/10/03 02:46:48;;;;;;;55.07;25.10;;;;;;;7.01;62.88;102335.66;5127231;27;20273;-59
2021/10/03 02:49:14;;;;;;;62.00;29.37;;;;;;;7.00;63.17;102342.34;5112761;27;20275;-59
2021/10/03 02:51:39;;;;;;;81.23;32.43;;;;;;;7.00;62.80;102345.09;5132016;27;20180;-59
2021/10/03 02:54:05;;;;;;;93.37;40.43;;;;;;;6.92;62.56;102335.09;5131455;27;20292;-59
2021/10/03 02:56:32;;;;;;;96.77;41.70;;;;;;;6.94;63.29;102346.56;5131067;27;20184;-59
2021/10/03 02:58:58;;;;;;;100.97;40.80;;;;;;;6.92;62.87;102348.09;5118487;27;20186;-59
2021/10/03 03:01:23;;;;;;;83.13;35.47;;;;;;;6.89;62.95;102348.81;5111270;28;20258;-59
2021/10/03 03:03:49;;;;;;;55.67;25.37;;;;;;;6.86;62.50;102347.59;5116980;27;20252;-60
2021/10/03 03:06:15;;;;;;;51.87;23.97;;;;;;;6.83;61.78;102348.31;5131090;27;20180;-62
2021/10/03 03:08:41;;;;;;;39.73;20.37;;;;;;;6.75;61.58;102349.34;5131085;27;20261;-62
2021/10/03 03:11:08;;;;;;;34.63;15.67;;;;;;;6.75;60.92;102340.28;5131128;27;20185;-59
2021/10/03 03:13:34;;;;;;;26.80;15.10;;;;;;;6.73;61.18;102350.88;5131368;27;20200;-59
2021/10/03 03:15:59;;;;;;;27.60;15.17;;;;;;;6.66;61.65;102340.50;5130528;27;20304;-59
2021/10/03 03:18:25;;;;;;;30.77;16.60;;;;;;;6.57;62.16;102337.19;5131104;27;20245;-62
2021/10/03 03:20:51;;;;;;;33.70;17.30;;;;;;;6.54;62.27;102345.38;5130235;27;20232;-60
2021/10/03 03:23:16;;;;;;;36.97;17.90;;;;;;;6.54;61.91;102348.94;5110579;28;20707;-60
2021/10/03 03:25:42;;;;;;;32.30;17.47;;;;;;;6.52;61.44;102342.97;5110069;28;20180;-60
2021/10/03 03:28:08;;;;;;;34.83;18.63;;;;;;;6.39;62.26;102330.53;5110532;28;20443;-60
2021/10/03 03:30:36;;;;;;;37.57;19.33;;;;;;;6.47;62.76;102348.00;5109647;27;20821;-60
2021/10/03 03:33:02;;;;;;;39.00;20.23;;;;;;;6.44;62.57;102352.28;5109735;28;20212;-60
2021/10/03 03:35:28;;;;;;;37.63;21.60;;;;;;;6.42;61.96;102360.09;5110087;28;20714;-59
2021/10/03 03:37:53;;;;;;;46.80;21.97;;;;;;;6.37;62.67;102359.59;5109740;28;20246;-60
2021/10/03 03:40:19;;;;;;;43.60;21.40;;;;;;;6.36;62.47;102369.81;5110531;28;20184;-60
2021/10/03 03:42:46;;;;;;;42.33;20.60;;;;;;;6.35;62.27;102362.69;5110138;28;20177;-60
2021/10/03 03:45:13;;;;;;;44.50;21.90;;;;;;;6.11;62.41;102323.66;5113640;27;20192;-60
2021/10/03 03:47:40;;;;;;;48.63;24.27;;;;;;;6.34;62.27;102365.81;5130296;27;20711;-60
2021/10/03 03:50:09;;;;;;;51.30;26.27;;;;;;;6.27;63.12;102360.16;5129741;27;20627;-59
2021/10/03 03:52:34;;;;;;;51.47;26.37;;;;;;;6.24;63.14;102369.94;5110228;28;20245;-61
2021/10/03 03:55:00;;;;;;;47.17;25.13;;;;;;;6.24;62.92;102369.13;5110008;28;20172;-59
2021/10/03 03:57:25;;;;;;;48.20;24.63;;;;;;;6.19;63.25;102363.91;5109302;28;20608;-61
2021/10/03 03:59:51;;;;;;;44.27;22.63;;;;;;;6.15;63.43;102372.09;5109619;28;20195;-61
2021/10/03 04:02:17;;;;;;;39.20;21.50;;;;;;;6.02;64.77;102364.34;5110263;28;20184;-61
2021/10/03 04:04:42;;;;;;;39.70;20.73;;;;;;;5.95;64.58;102373.22;5110379;28;20257;-61
2021/10/03 04:07:08;;;;;;;41.90;20.23;;;;;;;5.65;63.81;102319.81;5109278;28;20271;-62
2021/10/03 04:09:34;;;;;;;43.73;21.03;;;;;;;5.87;64.64;102370.66;5109734;28;20212;-59
2021/10/03 04:12:00;;;;;;;40.77;19.80;;;;;;;5.91;64.88;102369.63;5109727;28;20181;-61
2021/10/03 04:14:26;;;;;;;41.37;20.30;;;;;;;5.88;64.95;102375.81;5110085;28;20262;-61
2021/10/03 04:16:51;;;;;;;40.40;20.13;;;;;;;5.94;65.17;102379.09;5108933;28;20256;-61
2021/10/03 04:19:17;;;;;;;34.13;18.40;;;;;;;5.99;65.21;102378.81;5126349;28;20180;-61
2021/10/03 04:21:42;;;;;;;39.67;19.30;;;;;;;6.00;64.61;102378.44;5122603;28;20277;-61
2021/10/03 04:24:08;;;;;;;32.40;18.07;;;;;;;6.02;63.38;102386.34;5109918;28;20256;-61
2021/10/03 04:26:33;;;;;;;34.37;18.07;;;;;;;6.03;63.32;102385.19;5109477;28;20188;-61
2021/10/03 04:28:59;;;;;;;35.40;18.27;;;;;;;6.07;63.54;102386.06;5108719;28;20556;-61
2021/10/03 04:31:24;;;;;;;36.80;18.87;;;;;;;6.10;63.99;102388.91;5109366;28;20273;-60
2021/10/03 04:33:50;;;;;;;40.33;20.97;;;;;;;5.71;63.76;102318.41;5109355;28;20207;-61
2021/10/03 04:36:15;;;;;;;39.30;21.37;;;;;;;5.78;64.05;102332.31;5109605;28;20177;-61
2021/10/03 04:38:41;;;;;;;40.13;21.53;;;;;;;5.99;64.57;102365.84;5109494;28;20533;-61
2021/10/03 04:41:07;;;;;;;39.03;22.30;;;;;;;6.14;64.41;102386.22;5109589;28;20244;-61
2021/10/03 04:43:32;;;;;;;38.10;21.67;;;;;;;6.18;64.39;102379.66;5109828;28;20207;-61
2021/10/03 04:45:58;;;;;;;44.03;21.93;;;;;;;6.15;64.50;102385.88;5109041;28;20265;-61
2021/10/03 04:48:24;;;;;;;48.40;23.00;;;;;;;6.09;64.43;102387.31;5109260;28;20176;-61
2021/10/03 04:50:50;;;;;;;42.53;21.87;;;;;;;6.12;63.34;102394.06;5109479;28;20538;-61
2021/10/03 04:53:15;;;;;;;39.03;19.33;;;;;;;5.90;63.48;102395.50;5109451;28;20684;-61
2021/10/03 04:55:41;;;;;;;38.90;19.87;;;;;;;6.03;64.13;102393.44;5109390;28;20196;-61
2021/10/03 04:58:07;;;;;;;38.37;19.50;;;;;;;6.02;63.43;102383.59;5119727;28;20181;-61
2021/10/03 05:00:32;;;;;;;41.50;19.87;;;;;;;6.10;63.47;102388.13;5130223;28;20191;-61
2021/10/03 05:02:58;;;;;;;32.33;19.53;;;;;;;5.90;63.68;102394.72;5131079;27;20203;-61
2021/10/03 05:05:23;;;;;;;37.43;19.60;;;;;;;5.85;64.18;102397.75;5113129;27;20572;-61
2021/10/03 05:07:49;;;;;;;33.80;18.97;;;;;;;5.95;64.11;102409.00;5112887;28;20188;-58
2021/10/03 05:10:15;;;;;;;32.33;18.13;;;;;;;5.91;64.36;102416.41;5125348;27;20184;-61
2021/10/03 05:12:41;;;;;;;30.00;18.07;;;;;;;5.94;64.51;102410.16;5133422;27;20264;-61
2021/10/03 05:15:07;;;;;;;29.40;17.07;;;;;;;6.04;64.51;102409.59;5133228;27;20178;-61
2021/10/03 05:17:32;;;;;;;31.63;17.10;;;;;;;5.83;64.90;102369.78;5132934;27;20665;-62
2021/10/03 05:19:58;;;;;;;33.77;18.50;;;;;;;6.22;64.75;102424.59;5133060;27;20165;-61
2021/10/03 05:22:24;;;;;;;29.67;17.27;;;;;;;6.05;65.15;102382.91;5120135;27;20260;-61
2021/10/03 05:24:53;;;;;;;27.60;16.77;;;;;;;6.42;64.99;102425.41;5112731;28;20175;-61
2021/10/03 05:27:19;;;;;;;24.57;14.57;;;;;;;6.49;65.23;102420.84;5112102;28;20222;-60
2021/10/03 05:29:46;;;;;;;23.87;11.90;;;;;;;6.58;64.99;102426.94;5111529;27;20181;-60
2021/10/03 05:32:11;;;;;;;18.30;11.70;;;;;;;6.34;65.13;102377.63;5112563;28;20272;-59
2021/10/03 05:34:37;;;;;;;19.30;11.53;;;;;;;6.73;64.39;102433.53;5112361;28;20199;-60
2021/10/03 05:37:03;;;;;;;17.63;11.60;;;;;;;6.81;64.71;102441.56;5111699;28;20176;-60
2021/10/03 05:39:28;;;;;;;17.27;10.83;;;;;;;6.90;64.68;102436.66;5112421;28;20182;-60
2021/10/03 05:41:54;;;;;;;14.73;9.80;;;;;;;6.79;64.01;102413.59;5112209;28;20177;-60
2021/10/03 05:44:20;;;;;;;21.60;11.37;;;;;;;7.03;64.22;102437.28;5112619;28;20178;-60
2021/10/03 05:46:45;;;;;;;18.27;10.83;;;;;;;7.10;64.52;102426.38;5111940;28;20178;-60
2021/10/03 05:49:11;;;;;;;19.40;11.10;;;;;;;7.17;64.11;102441.09;5111955;28;20214;-60
2021/10/03 05:51:36;;;;;;;13.97;10.70;;;;;;;7.25;64.17;102437.31;5112591;28;20174;-60
2021/10/03 05:54:03;;;;;;;16.63;11.63;;;;;;;7.34;64.35;102442.59;5112266;28;20227;-60
2021/10/03 05:56:28;;;;;;;15.80;11.23;;;;;;;7.39;64.12;102437.56;5112060;28;20267;-60
2021/10/03 05:58:54;;;;;;;21.77;11.93;;;;;;;7.35;64.12;102417.41;5111274;28;20684;-60
2021/10/03 06:01:19;;;;;;;16.07;11.83;;;;;;;7.41;63.88;102410.44;5111840;28;20184;-60
2021/10/03 06:03:45;;;;;;;18.23;12.30;;;;;;;7.71;64.09;102446.41;5111884;28;20252;-60
2021/10/03 06:06:11;;;;;;;17.83;12.20;;;;;;;7.79;63.91;102451.66;5111803;28;20231;-60
2021/10/03 06:08:36;;;;;;;21.23;13.07;;;;;;;7.63;64.18;102411.59;5111377;28;20233;-60
2021/10/03 06:11:02;;;;;;;19.03;12.13;;;;;;;7.59;64.58;102392.19;5111576;28;20186;-60
2021/10/03 06:13:27;;;;;;;22.90;12.63;;;;;;;8.03;64.74;102439.41;5093540;28;20213;-60
2021/10/03 06:15:55;;;;;;;18.67;13.03;;;;;;;8.25;64.34;102450.44;5111075;28;20180;-60
2021/10/03 06:18:21;;;;;;;18.50;11.80;;;;;;;8.40;64.59;102457.00;5120104;27;20222;-60
2021/10/03 06:20:48;;;;;;;18.63;12.67;;;;;;;8.20;64.63;102414.09;5131695;27;20297;-60
2021/10/03 06:23:15;;;;;;;17.90;12.47;;;;;;;8.65;65.08;102460.84;5131858;27;20303;-60
2021/10/03 06:25:40;;;;;;;17.57;12.60;;;;;;;8.81;65.09;102459.50;5132040;27;20543;-59
2021/10/03 06:28:07;;;;;;;17.13;12.33;;;;;;;8.98;64.78;102460.91;5131572;27;20175;-60
2021/10/03 06:30:34;;;;;;;20.47;13.43;;;;;;;9.00;64.64;102440.00;5117920;27;20187;-60
2021/10/03 06:33:00;;;;;;;20.80;12.43;;;;;;;9.30;64.86;102454.53;5110974;28;20190;-60
2021/10/03 06:35:28;;;;;;;18.83;13.47;;;;;;;9.45;64.26;102458.25;5111595;28;20185;-60
2021/10/03 06:37:54;;;;;;;16.20;12.30;;;;;;;9.52;64.10;102445.28;5110851;28;20263;-60
2021/10/03 06:40:20;;;;;;;16.70;12.97;;;;;;;9.78;63.66;102458.94;5111524;28;20209;-60
2021/10/03 06:42:45;;;;;;;20.53;12.57;;;;;;;9.63;63.18;102421.25;5111010;28;20247;-60
2021/10/03 06:45:11;;;;;;;24.20;14.23;;;;;;;9.92;62.96;102467.38;5110816;28;20180;-60
2021/10/03 06:47:37;;;;;;;22.97;15.57;;;;;;;9.96;63.66;102468.22;5110859;28;20176;-60
2021/10/03 06:50:04;;;;;;;23.53;15.03;;;;;;;10.17;63.26;102468.38;5110443;28;20590;-60
2021/10/03 06:52:29;;;;;;;21.40;14.50;;;;;;;10.18;63.00;102450.59;5111367;28;20178;-60
2021/10/03 06:54:55;;;;;;;25.43;14.87;;;;;;;10.43;63.49;102462.63;5110901;28;20172;-60
2021/10/03 06:57:20;;;;;;;26.17;14.77;;;;;;;10.48;63.29;102465.03;5110666;27;20185;-60
2021/10/03 06:59:46;;;;;;;21.17;15.00;;;;;;;10.54;63.28;102460.69;5110379;28;20180;-61
2021/10/03 07:02:26;;;;;;;25.33;14.57;;;;;;;10.71;63.42;102459.97;5110709;28;20181;-61
2021/10/03 07:04:55;;;;;;;22.40;13.60;;;;;;;10.91;62.59;102469.59;5126060;27;20207;-61
2021/10/03 07:07:21;;;;;;;20.50;13.43;;;;;;;10.94;62.37;102468.81;5130711;27;20184;-61
2021/10/03 07:09:46;;;;;;;21.30;14.07;;;;;;;11.17;61.88;102463.72;5130273;27;20177;-60
2021/10/03 07:12:12;;;;;;;24.03;14.30;;;;;;;11.09;62.05;102464.91;5131501;27;20173;-60
2021/10/03 07:14:39;;;;;;;22.03;13.80;;;;;;;11.16;61.86;102470.47;5112696;27;20676;-61
2021/10/03 07:17:05;;;;;;;21.70;13.87;;;;;;;11.24;61.48;102455.44;5129901;27;20248;-61
2021/10/03 07:19:30;;;;;;;20.13;13.43;;;;;;;11.35;61.81;102464.56;5130694;27;20499;-60
2021/10/03 07:21:56;;;;;;;20.97;13.87;;;;;;;11.61;61.32;102466.22;5130458;27;20435;-60
2021/10/03 07:24:22;;;;;;;20.53;13.83;;;;;;;11.75;60.86;102461.50;5130836;27;20201;-61
2021/10/03 07:26:47;;;;;;;20.17;14.27;;;;;;;11.83;61.11;102465.84;5130073;27;20201;-61
2021/10/03 07:29:13;;;;;;;17.30;12.60;;;;;;;11.83;60.82;102471.41;5114037;27;20174;-60
2021/10/03 07:31:38;;;;;;;21.43;12.80;;;;;;;11.88;59.68;102448.00;5117025;27;20219;-60
2021/10/03 07:34:04;;;;;;;17.00;11.93;;;;;;;11.97;58.41;102457.50;5119486;27;20630;-61
2021/10/03 07:36:29;;;;;;;17.70;11.27;;;;;;;12.14;57.37;102476.16;5127071;27;20676;-61
2021/10/03 07:38:55;;;;;;;20.63;11.50;;;;;;;12.16;56.32;102461.88;5120981;27;20180;-61
2021/10/03 07:41:21;;;;;;;17.57;11.10;;;;;;;12.15;56.87;102460.28;5124551;27;20678;-60
2021/10/03 07:43:48;;;;;;;18.03;11.07;;;;;;;12.24;56.94;102458.66;5122807;27;21025;-60
2021/10/03 07:46:16;;;;;;;18.10;11.17;;;;;;;12.34;57.00;102434.84;5115421;27;20186;-61
2021/10/03 07:48:41;;;;;;;15.17;10.67;;;;;;;12.77;56.02;102467.69;5116563;27;20186;-61
2021/10/03 07:51:07;;;;;;;19.30;10.93;;;;;;;12.95;55.27;102464.81;5127671;27;20213;-61
2021/10/03 07:53:33;;;;;;;20.47;11.70;;;;;;;12.94;53.93;102468.78;5128921;27;20208;-61
2021/10/03 07:55:58;;;;;;;18.97;11.30;;;;;;;12.89;54.18;102464.44;5128472;27;20745;-60
2021/10/03 07:58:24;;;;;;;15.63;11.50;;;;;;;12.76;54.54;102454.94;5107272;28;20181;-61
2021/10/03 08:00:49;;;;;;;15.03;11.23;;;;;;;12.76;54.24;102448.59;5110365;28;20178;-61
2021/10/03 08:03:15;;;;;;;15.07;11.03;;;;;;;13.16;54.38;102459.19;5119618;28;20173;-61
2021/10/03 08:05:40;;;;;;;19.53;11.87;;;;;;;13.11;53.23;102442.91;5115089;28;20193;-61
2021/10/03 08:08:06;;;;;;;21.13;10.83;;;;;;;13.47;53.18;102472.13;5107131;28;20174;-61
2021/10/03 08:10:32;;;;;;;14.30;10.73;;;;;;;13.26;53.09;102422.91;5107759;28;20188;-61
2021/10/03 08:12:58;;;;;;;15.43;10.60;;;;;;;13.55;52.03;102454.97;5107962;28;20285;-61
2021/10/03 08:15:27;;;;;;;15.83;11.37;;;;;;;13.57;52.40;102469.25;5107385;28;20741;-61
2021/10/03 08:17:55;;;;;;;16.23;10.73;;;;;;;13.75;52.21;102467.16;5111290;28;20569;-61
2021/10/03 08:20:21;;;;;;;14.13;10.30;;;;;;;13.84;52.13;102472.25;5128688;28;20749;-62
2021/10/03 08:22:48;;;;;;;15.47;10.90;;;;;;;13.87;51.29;102449.91;5128317;28;20238;-61
2021/10/03 08:25:14;;;;;;;21.17;11.30;;;;;;;14.05;51.44;102483.22;5129009;28;20235;-61
2021/10/03 08:27:39;;;;;;;16.00;11.27;;;;;;;13.90;51.01;102446.31;5128200;28;20556;-61
2021/10/03 08:30:07;;;;;;;13.77;10.87;;;;;;;14.24;50.50;102466.72;5113697;28;20656;-61
2021/10/03 08:32:33;;;;;;;15.77;11.60;;;;;;;14.34;50.09;102462.28;5107994;28;20212;-61
2021/10/03 08:34:58;;;;;;;17.60;11.27;;;;;;;14.40;50.05;102455.81;5107868;28;20693;-61
2021/10/03 08:37:24;;;;;;;18.03;11.67;;;;;;;14.31;50.08;102463.91;5107550;28;20181;-61
2021/10/03 08:39:50;;;;;;;16.63;11.70;;;;;;;14.44;50.27;102461.38;5112262;28;20189;-61
2021/10/03 08:42:16;;;;;;;17.87;11.30;;;;;;;14.20;49.93;102452.03;5112578;28;20174;-62
2021/10/03 08:44:41;;;;;;;16.30;11.47;;;;;;;13.88;50.63;102409.69;5113408;28;20177;-61
2021/10/03 08:47:07;;;;;;;18.90;11.63;;;;;;;14.34;50.88;102456.69;5111403;28;20195;-61
2021/10/03 08:49:33;;;;;;;15.73;10.87;;;;;;;14.38;50.47;102455.44;5111879;28;20176;-61
2021/10/03 08:51:59;;;;;;;14.87;11.17;;;;;;;14.16;49.90;102391.91;5112180;28;20182;-61
2021/10/03 08:54:25;;;;;;;15.90;11.60;;;;;;;14.85;49.75;102453.72;5112830;28;20205;-62
2021/10/03 08:56:50;;;;;;;17.53;10.97;;;;;;;14.90;49.40;102445.66;5111683;27;20181;-61
2021/10/03 08:59:15;;;;;;;22.87;11.63;;;;;;;14.84;49.26;102454.91;5116527;27;20183;-61
2021/10/03 09:01:52;;;;;;;20.93;11.90;;;;;;;15.03;49.14;102452.28;5113020;28;20212;-61
2021/10/03 09:04:45;;;;;;;16.07;11.10;;;;;;;15.18;49.72;102456.47;5123609;27;20200;-61
2021/10/03 09:07:16;;;;;;;24.53;11.77;;;;;;;15.10;49.31;102448.56;5128553;27;20249;-61
2021/10/03 09:09:49;;;;;;;18.27;11.47;;;;;;;14.95;48.22;102392.16;5132936;27;20255;-61
2021/10/03 09:12:30;;;;;;;16.13;10.27;;;;;;;15.48;48.29;102438.88;5132945;27;20177;-61
2021/10/03 09:14:57;;;;;;;14.73;11.27;;;;;;;15.39;47.79;102439.44;5132815;27;20209;-61
2021/10/03 09:17:24;;;;;;;15.07;11.40;;;;;;;15.42;47.95;102423.81;5131947;27;20757;-61
2021/10/03 09:20:24;;;;;;;17.20;11.20;;;;;;;15.39;48.03;102422.66;5133098;27;20206;-61
2021/10/03 09:23:06;;;;;;;16.43;11.17;;;;;;;15.39;48.69;102431.03;5132917;27;20161;-61
2021/10/03 09:25:41;;;;;;;17.10;9.90;;;;;;;15.80;48.44;102425.19;5133289;27;20167;-61
2021/10/03 09:28:12;;;;;;;17.87;11.20;;;;;;;15.87;47.14;102423.06;5133229;27;20657;-61
2021/10/03 09:30:51;;;;;;;17.63;10.87;;;;;;;16.07;46.91;102426.69;5119670;27;20182;-61
2021/10/03 09:33:17;;;;;;;16.20;10.87;;;;;;;16.10;46.73;102419.47;5116141;27;20765;-61
2021/10/03 09:35:57;;;;;;;16.27;11.07;;;;;;;16.18;46.43;102410.50;5127188;27;20284;-61
2021/10/03 09:38:23;;;;;;;15.83;10.43;;;;;;;16.27;45.82;102419.13;5112310;28;20191;-61
2021/10/03 09:41:03;;;;;;;15.00;10.00;;;;;;;16.58;45.88;102414.16;5112467;28;20216;-61
2021/10/03 09:43:43;;;;;;;17.27;11.13;;;;;;;16.43;46.33;102410.84;5123129;27;20173;-61
2021/10/03 09:46:27;;;;;;;17.40;10.13;;;;;;;16.78;45.04;102418.53;5121054;27;20569;-61
2021/10/03 09:48:52;;;;;;;18.30;10.70;;;;;;;17.03;44.31;102402.00;5111493;28;20651;-61
2021/10/03 09:51:18;;;;;;;14.80;9.60;;;;;;;17.09;44.66;102402.25;5112276;28;20186;-59
2021/10/03 09:53:44;;;;;;;16.17;10.30;;;;;;;17.23;44.13;102397.13;5112205;28;20205;-59
2021/10/03 09:56:11;;;;;;;15.33;10.30;;;;;;;17.33;43.63;102404.50;5112460;28;20182;-61
2021/10/03 09:58:38;;;;;;;14.07;10.47;;;;;;;17.35;44.57;102393.63;5111851;28;20238;-61
2021/10/03 10:01:04;;;;;;;16.10;10.57;;;;;;;17.37;44.22;102362.38;5111981;28;20626;-61
2021/10/03 10:03:30;;;;;;;15.13;10.33;;;;;;;17.49;44.23;102370.09;5112411;28;20204;-61
2021/10/03 10:05:56;;;;;;;19.90;10.47;;;;;;;17.83;43.95;102367.63;5111575;28;20233;-61
2021/10/03 10:08:22;;;;;;;17.50;10.13;;;;;;;17.72;43.95;102347.50;5112350;28;20174;-61
2021/10/03 10:10:50;;;;;;;16.83;10.87;;;;;;;17.97;42.93;102360.88;5111381;28;20183;-61
2021/10/03 10:13:17;;;;;;;16.10;10.70;;;;;;;18.08;42.28;102348.91;5111300;28;20648;-61
2021/10/03 10:15:43;;;;;;;16.00;10.60;;;;;;;18.16;42.66;102349.50;5111340;28;20262;-61
2021/10/03 10:18:22;;;;;;;21.00;10.53;;;;;;;18.28;41.40;102343.94;5118189;27;20308;-60
2021/10/03 10:20:49;;;;;;;15.33;10.30;;;;;;;18.38;40.18;102335.69;5132057;27;20264;-61
2021/10/03 10:23:18;;;;;;;17.17;10.57;;;;;;;18.74;40.01;102333.41;5132133;27;20174;-58
2021/10/03 10:25:49;;;;;;;16.73;10.43;;;;;;;18.88;39.03;102330.16;5131783;27;20216;-58
2021/10/03 10:28:37;;;;;;;17.03;9.70;;;;;;;18.89;39.23;102331.72;5132110;27;20185;-58
2021/10/03 10:31:04;;;;;;;13.03;8.47;;;;;;;19.01;40.33;102334.53;5114859;27;20238;-59
2021/10/03 10:33:51;;;;;;;13.50;8.83;;;;;;;19.02;37.50;102318.44;5116652;27;20670;-58
2021/10/03 10:36:20;;;;;;;13.70;7.60;;;;;;;19.37;38.37;102315.31;5131711;27;20180;-59
2021/10/03 10:39:07;;;;;;;13.53;7.77;;;;;;;19.68;37.06;102316.25;5131859;27;20207;-59
2021/10/03 10:41:36;;;;;;;9.70;7.50;;;;;;;19.88;37.06;102310.31;5132045;27;20199;-58
2021/10/03 10:44:27;;;;;;;13.73;8.30;;;;;;;20.23;36.68;102312.69;5131594;27;20170;-61
2021/10/03 10:47:06;;;;;;;18.27;8.93;;;;;;;20.35;35.71;102311.03;5112602;27;20170;-61
2021/10/03 10:49:36;;;;;;;12.00;7.23;;;;;;;20.11;35.47;102307.88;5131544;27;20165;-61
2021/10/03 10:52:20;;;;;;;13.47;7.80;;;;;;;20.23;34.96;102297.81;5131868;27;20188;-61
2021/10/03 10:55:22;;;;;;;15.50;7.87;;;;;;;20.31;34.55;102307.56;5131402;27;20189;-61
2021/10/03 10:57:51;;;;;;;13.17;7.27;;;;;;;20.61;35.56;102299.13;5128667;27;20267;-61
2021/10/03 11:00:24;;;;;;;14.90;7.43;;;;;;;20.73;34.65;102292.63;5110551;28;20241;-61
2021/10/03 11:02:54;;;;;;;9.50;6.00;;;;;;;20.85;34.52;102293.78;5110758;28;20178;-61
2021/10/03 11:05:34;;;;;;;11.20;5.93;;;;;;;21.01;34.57;102287.91;5129638;27;20223;-61
2021/10/03 11:08:19;;;;;;;12.70;6.67;;;;;;;21.36;34.72;102287.25;5130972;27;20255;-61
2021/10/03 11:10:57;;;;;;;12.57;6.97;;;;;;;21.55;34.15;102280.34;5130957;27;20170;-61
2021/10/03 11:13:37;;;;;;;8.97;5.87;;;;;;;21.42;32.90;102290.22;5130777;27;20776;-61
2021/10/03 11:16:34;;;;;;;10.27;6.00;;;;;;;21.52;32.75;102280.50;5130337;27;20204;-61